LIPB 202050Z VRB03KT 9999 FEW045 SCT070 BKN110 16/14 Q1018 RERA RMK MON INVIS LIPB 201958Z VRB02KT 9999 RA FEW035 SCT065 BKN090 18/12 Q1017 LIPB 201950Z VRB02KT 9999 DZ SCT065 SCT080 18/13 Q1017 RMK MON INVIS LIPB 201850Z VRB02KT 9999 BKN070 19/11 Q1016 RMK MON INVIS LIPB 201750Z 15004KT 100V260 9999 SCT070 SCT110 20/11 Q1015 RMK MON LIB LIPB 201650Z 16004KT 130V250 9999 FEW065 SCT110 20/11 Q1015 RMK MON LIB LIPB 201550Z 16006KT 120V200 9999 FEW080 BKN140 22/10 Q1014 RMK MON LIB LIPB 201450Z 16004KT 140V200 9999 VCSH FEW065CB SCT080 22/11 Q1013 RMK MON LIB LIPB 201350Z 19005KT 9999 FEW080 25/10 Q1013 RMK MON LIB LIPB 201250Z VRB03KT 9999 FEW090 24/10 Q1013 RMK MON LIB LIPB 201150Z VRB03KT CAVOK 24/10 Q1013 RMK MON LIB LIPB 201050Z VRB02KT CAVOK 21/10 Q1014 RMK MON LIB LIPB 200950Z VRB02KT CAVOK 20/11 Q1015 RMK MON LIB LIPB 200850Z VRB02KT CAVOK 18/11 Q1015 RMK MON LIB LIPB 200750Z 13004KT CAVOK 16/12 Q1015 RMK MON LIB LIPB 200650Z 00000KT CAVOK 12/12 Q1015 RMK MON LIB LIPB 200550Z VRB02KT CAVOK 11/11 Q1014 RMK MON LIB LIPB 200450Z VRB03KT 9999 FEW100 11/11 Q1014 RMK MON LIB LIPB 192050Z 03004KT 290V100 9999 FEW030 BKN070 15/13 Q1012 RERA RMK MON INVIS LIPB 192008Z 35005KT 270V080 9999 -RA SCT040 BKN070 15/14 Q1011 RERA LIPB 191950Z 31009KT 280V350 9999 RA SCT030 BKN060 15/14 Q1011 RETSRA RESHRA RMK MON INVIS LIPB 191912Z VRB03KT 8000 SHRA SCT030CB OVC050 15/14 Q1011 RETSRA LIPB 191850Z 13007KT 080V240 3500 +TSRA SCT020CB OVC050 15/14 Q1011 RMK MON INVIS LIPB 191820Z VRB04KT 8000 TS SCT020CB BKN050 BKN080 16/13 Q1010 LIPB 191750Z 03003KT 9999 SCT030 BKN040 BKN080 17/13 Q1010 RETS RMK MON INVIS LIPB 191705Z 36006KT 290V080 9999 TS SCT020CB BKN040 BKN070 17/13 Q1009 RETSRA LIPB 191650Z 35004KT 290V060 8000 TSRA SCT020CB BKN040 BKN110 16/13 Q1009 RMK MON GEN INC LIPB 191625Z VRB03KT 7000 TSRA FEW010 SCT020CB BKN030 18/17 Q1009 LIPB 191601Z VRB03KT 9999 -TSRA FEW010 SCT030CB BKN070 18/17 Q1008 LIPB 191550Z VRB03KT 9999 FEW015 SCT035 BKN070 19/17 Q1008 RMK MON GEN INC LIPB 191450Z VRB02KT 9999 FEW015 SCT035 BKN080 20/17 Q1009 RMK MON GEN INC

METAR Messwerte

Zurück zur Übersicht

Ort
m ü. NN
Zeit Temperatur Taupunkt Rel.
Luftfeuchte
Luftdruck:
Altimeter
NN
Station
Wind in Beaufort
(Knoten)
Sichtweite
(Meter)
Wolken
(Meter über Grund)
Wettererscheinung
Bozen
241
Mo 20.09. 22:50161488 %1018
1018
989
Uml 2 (3)>= 10000Stark bewölkt (3400)
Wolkig (2100)
Leicht bewölkt (1400)
 
Bozen
241
Mo 20.09. 21:58181268 %1017
1017
988
Uml 1 (2)>= 10000Stark bewölkt (2700)
Wolkig (2000)
Leicht bewölkt (1100)
Regen
Bozen
241
Mo 20.09. 21:50181373 %1017
1017
988
Uml 1 (2)>= 10000Wolkig (2400)
Wolkig (2000)
Nieselregen
Bozen
241
Mo 20.09. 20:50191160 %1016
1016
987
Uml 1 (2)>= 10000Stark bewölkt (2100) 
Bozen
241
Mo 20.09. 19:50201156 %1015
1015
986
SSO 2 (4)
O - W
>= 10000Wolkig (3400)
Wolkig (2100)
 
Bozen
241
Mo 20.09. 18:50201156 %1015
1015
986
SSO 2 (4)
SO - WSW
>= 10000Wolkig (3400)
Leicht bewölkt (2000)
 
Bozen
241
Mo 20.09. 17:50221046 %1014
1013
985
SSO 2 (6)
OSO - SSW
>= 10000Stark bewölkt (4300)
Leicht bewölkt (2400)
 
Bozen
241
Mo 20.09. 16:50221150 %1013
1012
984
SSO 2 (4)
SO - SSW
>= 10000Wolkig (2400)
Leicht bewölkt Cb (2000)
 
Bozen
241
Mo 20.09. 15:50251039 %1013
1012
984
S 2 (5)>= 10000Leicht bewölkt (2400) 
Bozen
241
Mo 20.09. 14:50241041 %1013
1012
984
Uml 2 (3)>= 10000Leicht bewölkt (2700) 
Bozen
241
Mo 20.09. 13:50241041 %1013
1012
984
Uml 2 (3)>= 10000Nicht signifikant 
Bozen
241
Mo 20.09. 12:50211049 %1014
1013
985
Uml 1 (2)>= 10000Nicht signifikant 
Bozen
241
Mo 20.09. 11:50201156 %1015
1015
986
Uml 1 (2)>= 10000Nicht signifikant 
Bozen
241
Mo 20.09. 10:50181164 %1015
1015
986
Uml 1 (2)>= 10000Nicht signifikant 
Bozen
241
Mo 20.09. 09:50161277 %1015
1015
986
SO 2 (4)>= 10000Nicht signifikant 
Bozen
241
Mo 20.09. 08:501212100 %1015
1015
986
Windstill>= 10000Nicht signifikant 
Bozen
241
Mo 20.09. 07:501111100 %1014
1014
985
Uml 1 (2)>= 10000Nicht signifikant 
Bozen
241
Mo 20.09. 06:501111100 %1014
1014
985
Uml 2 (3)>= 10000Leicht bewölkt (3000) 
Bozen
241
So 19.09. 22:50151388 %1012
1012
983
NNO 2 (4)
WNW - O
>= 10000Stark bewölkt (2100)
Leicht bewölkt (910)
 
Bozen
241
So 19.09. 22:08151494 %1011
1011
982
N 2 (5)
W - O
>= 10000Stark bewölkt (2100)
Wolkig (1200)
Regen (schwach)
Bozen
241
So 19.09. 21:50151494 %1011
1011
982
NW 3 (9)
W - N
>= 10000Stark bewölkt (1800)
Wolkig (910)
Regen
Bozen
241
So 19.09. 21:12151494 %1011
1011
982
Uml 2 (3)8000Bedeckt (1500)
Wolkig Cb (910)
Regen-Schauer
Bozen
241
So 19.09. 20:50151494 %1011
1011
982
SO 3 (7)
O - WSW
3500Bedeckt (1500)
Wolkig Cb (610)
Gewitter mit Regen (stark)
Bozen
241
So 19.09. 20:20161382 %1010
1010
981
Uml 2 (4)8000Stark bewölkt (2400)
Stark bewölkt (1500)
Wolkig Cb (610)
 
Bozen
241
So 19.09. 19:50171377 %1010
1010
981
NNO 2 (3)>= 10000Stark bewölkt (2400)
Stark bewölkt (1200)
Wolkig (910)
 
Bozen
241
So 19.09. 19:05171377 %1009
1009
980
N 2 (6)
WNW - O
>= 10000Stark bewölkt (2100)
Stark bewölkt (1200)
Wolkig Cb (610)
 
Bozen
241
So 19.09. 18:50161382 %1009
1009
980
N 2 (4)
WNW - ONO
8000Stark bewölkt (3400)
Stark bewölkt (1200)
Wolkig Cb (610)
Gewitter mit Regen
Bozen
241
So 19.09. 18:25181794 %1009
1009
980
Uml 2 (3)7000Stark bewölkt (910)
Wolkig Cb (610)
Leicht bewölkt (300)
Gewitter mit Regen
Bozen
241
So 19.09. 18:01181794 %1008
1008
980
Uml 2 (3)>= 10000Stark bewölkt (2100)
Wolkig Cb (910)
Leicht bewölkt (300)
Gewitter mit Regen (schwach)
Bozen
241
So 19.09. 17:50191788 %1008
1008
980
Uml 2 (3)>= 10000Stark bewölkt (2100)
Wolkig (1100)
Leicht bewölkt (460)
 
Bozen
241
So 19.09. 16:50201783 %1009
1008
980
Uml 1 (2)>= 10000Stark bewölkt (2400)
Wolkig (1100)
Leicht bewölkt (460)
 

Altimeter: Einstellung am Altimeter (Höhenmesser), die Höhe 0 muss auf diesen Luftdruckwert zeigen, damit das Gerät die Stationshöhe richtig anzeigt.

NN: Luftdruck reduziert auf "Normal Null", auf Meereshöhe, dieser von der Temperatur abhängige Wert wird bisweilen unkorrekt einfach als "Luftdruck" bezeichnet. Eigentlich nur eine fiktive Größe, die es erlaubt, Stationen auf unterschiedlichen Höhen miteinander zu vergleichen.

Station: Realer Luftdruck an der Station.